Time;durP1;ratioP1;P1;durP2;ratioP2;P2;SDS_P1;SDS_P2;PMS_P1;PMS_P2;Temp;Humidity;BMP_temperature;BMP_pressure;BME280_temperature;BME280_humidity;BME280_pressure;Samples;Min_cycle;Max_cycle;Signal;HPM_P1;HPM_P2
2021/10/19 00:00:54;;;;;;;25.77;13.65;;;6.40;96.80;;;;;;5047837;28;20029;-85
2021/10/19 00:03:20;;;;;;;26.20;13.15;;;6.40;96.80;;;;;;5062963;28;20040;-83
2021/10/19 00:05:46;;;;;;;24.10;13.82;;;6.40;96.80;;;;;;5021718;28;20140;-85
2021/10/19 00:08:11;;;;;;;22.90;12.40;;;6.40;96.80;;;;;;5050974;28;20033;-83
2021/10/19 00:10:37;;;;;;;24.08;13.27;;;6.30;96.80;;;;;;5034954;28;20243;-87
2021/10/19 00:13:03;;;;;;;25.77;14.27;;;6.30;96.80;;;;;;5015689;28;20021;-87
2021/10/19 00:15:29;;;;;;;27.35;13.23;;;6.30;96.80;;;;;;5033835;28;20075;-87
2021/10/19 00:17:54;;;;;;;24.63;13.43;;;6.30;96.80;;;;;;5003397;28;20053;-87
2021/10/19 00:20:20;;;;;;;26.60;14.35;;;6.30;96.80;;;;;;5015768;28;20026;-85
2021/10/19 00:22:46;;;;;;;26.17;13.82;;;6.30;96.80;;;;;;5016254;28;20025;-87
2021/10/19 00:25:16;;;;;;;32.63;14.20;;;6.30;96.80;;;;;;5030663;28;20020;-83
2021/10/19 00:27:43;;;;;;;21.88;12.75;;;6.30;96.80;;;;;;5056338;28;20033;-84
2021/10/19 00:30:10;;;;;;;29.02;14.02;;;6.30;96.80;;;;;;5039347;28;20021;-84
2021/10/19 00:32:37;;;;;;;27.52;14.15;;;6.30;96.80;;;;;;5050049;28;20536;-86
2021/10/19 00:35:02;;;;;;;25.92;13.50;;;6.30;96.70;;;;;;5030164;28;20462;-86
2021/10/19 00:37:28;;;;;;;23.67;13.18;;;6.30;96.80;;;;;;5031094;28;20041;-86
2021/10/19 00:39:54;;;;;;;27.33;13.60;;;6.20;96.70;;;;;;5016473;28;20378;-87
2021/10/19 00:42:19;;;;;;;23.10;12.50;;;6.20;96.70;;;;;;5016383;28;20091;-86
2021/10/19 00:44:45;;;;;;;27.38;14.00;;;6.10;96.80;;;;;;5015117;28;20025;-87
2021/10/19 00:47:19;;;;;;;24.77;13.15;;;6.10;96.80;;;;;;5024348;28;20018;-87
2021/10/19 00:49:44;;;;;;;25.25;13.43;;;6.10;96.80;;;;;;5010055;28;20087;-87
2021/10/19 00:52:11;;;;;;;24.02;13.70;;;6.10;96.80;;;;;;5024599;28;20109;-88
2021/10/19 00:54:36;;;;;;;24.88;14.38;;;6.10;96.80;;;;;;4998199;28;20252;-87
2021/10/19 00:57:02;;;;;;;26.20;13.70;;;6.10;96.80;;;;;;5017548;28;20025;-86
2021/10/19 00:59:29;;;;;;;23.80;13.32;;;6.00;96.70;;;;;;5018889;28;20612;-87
2021/10/19 01:01:55;;;;;;;29.08;13.52;;;6.00;96.70;;;;;;5017450;28;20037;-86
2021/10/19 01:04:20;;;;;;;24.73;13.75;;;5.90;96.60;;;;;;5051093;28;20434;-86
2021/10/19 01:06:46;;;;;;;24.23;13.65;;;5.80;96.70;;;;;;5038595;28;20064;-86
2021/10/19 01:09:12;;;;;;;22.35;13.40;;;5.70;96.60;;;;;;5029920;28;20092;-86
2021/10/19 01:11:38;;;;;;;26.58;13.85;;;5.70;96.70;;;;;;5017250;28;20033;-87
2021/10/19 01:14:04;;;;;;;28.48;14.60;;;5.70;96.90;;;;;;5011106;28;20128;-86
2021/10/19 01:16:29;;;;;;;24.67;13.98;;;5.60;96.90;;;;;;5012064;28;20278;-85
2021/10/19 01:18:57;;;;;;;25.23;13.60;;;5.60;96.80;;;;;;5029609;28;20024;-88
2021/10/19 01:21:22;;;;;;;24.58;13.85;;;5.70;96.90;;;;;;5036022;28;20052;-87
2021/10/19 01:23:49;;;;;;;26.40;14.43;;;5.60;97.00;;;;;;5015443;28;20030;-86
2021/10/19 01:26:15;;;;;;;25.27;13.77;;;5.70;96.90;;;;;;5028186;28;20029;-87
2021/10/19 01:28:42;;;;;;;28.77;13.98;;;5.60;96.80;;;;;;5026364;28;20162;-87
2021/10/19 01:31:10;;;;;;;26.08;14.02;;;5.60;96.90;;;;;;5015946;28;20100;-86
2021/10/19 01:33:38;;;;;;;21.88;13.15;;;5.60;97.00;;;;;;5016036;28;20048;-86
2021/10/19 01:36:04;;;;;;;22.50;12.65;;;5.70;97.20;;;;;;5016565;28;20063;-84
2021/10/19 01:38:30;;;;;;;26.90;13.90;;;5.70;97.20;;;;;;5021710;28;20030;-84
2021/10/19 01:40:57;;;;;;;29.40;14.30;;;5.70;97.10;;;;;;5021393;28;20490;-88
2021/10/19 01:43:25;;;;;;;25.75;12.82;;;5.70;97.00;;;;;;5015668;28;20084;-85
2021/10/19 01:46:01;;;;;;;24.67;14.18;;;5.70;97.00;;;;;;5032689;28;20022;-87
2021/10/19 01:48:29;;;;;;;26.90;13.68;;;5.80;97.10;;;;;;5012182;28;20026;-87
2021/10/19 01:50:56;;;;;;;28.65;14.00;;;5.80;97.10;;;;;;5003210;28;20026;-88
2021/10/19 01:53:22;;;;;;;27.02;12.90;;;5.80;97.20;;;;;;5019552;28;20040;-87
2021/10/19 01:55:48;;;;;;;25.30;13.38;;;5.90;97.20;;;;;;5021843;28;20029;-88
2021/10/19 01:58:14;;;;;;;27.20;14.38;;;5.90;97.10;;;;;;5020707;28;20589;-87
2021/10/19 02:00:41;;;;;;;27.48;14.25;;;5.90;97.10;;;;;;5015422;28;20066;-87
2021/10/19 02:03:07;;;;;;;23.80;13.30;;;5.90;97.10;;;;;;4999596;28;20029;-85
2021/10/19 02:05:34;;;;;;;25.55;13.13;;;6.00;97.10;;;;;;5016916;28;20323;-87
2021/10/19 02:08:03;;;;;;;26.10;14.13;;;6.00;97.10;;;;;;5021481;28;20025;-86
2021/10/19 02:10:29;;;;;;;24.70;13.15;;;6.00;97.10;;;;;;5019977;28;20407;-88
2021/10/19 02:12:55;;;;;;;24.58;13.18;;;6.00;97.10;;;;;;5019385;28;20040;-87
2021/10/19 02:15:24;;;;;;;26.67;14.02;;;6.00;97.20;;;;;;5018485;28;20089;-87
2021/10/19 02:17:50;;;;;;;30.08;14.82;;;6.00;97.20;;;;;;5013937;28;20056;-87
2021/10/19 02:20:16;;;;;;;23.25;13.35;;;6.10;97.20;;;;;;5001644;28;20033;-87
2021/10/19 02:22:41;;;;;;;23.45;12.82;;;6.10;97.20;;;;;;4996574;28;20032;-87
2021/10/19 02:25:07;;;;;;;25.48;13.82;;;6.10;97.20;;;;;;4999036;28;20018;-86
2021/10/19 02:27:33;;;;;;;24.85;13.48;;;6.10;97.20;;;;;;5012131;28;20115;-84
2021/10/19 02:29:59;;;;;;;27.27;14.85;;;6.10;97.20;;;;;;5017523;28;20471;-87
2021/10/19 02:32:24;;;;;;;32.92;16.05;;;6.10;97.20;;;;;;5036129;28;20112;-85
2021/10/19 02:34:50;;;;;;;32.17;15.48;;;6.10;97.20;;;;;;5011749;28;20030;-86
2021/10/19 02:37:16;;;;;;;28.90;14.48;;;6.10;97.20;;;;;;4999566;28;20521;-87
2021/10/19 02:39:42;;;;;;;28.85;14.90;;;6.10;97.10;;;;;;5020451;28;20489;-87
2021/10/19 02:42:08;;;;;;;23.83;13.57;;;6.00;97.00;;;;;;5019722;28;20501;-87
2021/10/19 02:44:33;;;;;;;29.42;14.85;;;5.90;97.00;;;;;;5018601;28;20152;-85
2021/10/19 02:46:59;;;;;;;29.05;15.13;;;5.90;97.10;;;;;;5019756;28;20032;-88
2021/10/19 02:49:25;;;;;;;24.75;13.85;;;5.80;97.20;;;;;;5020200;28;20041;-87
2021/10/19 02:51:50;;;;;;;28.02;15.85;;;5.90;97.30;;;;;;5028670;28;20386;-87
2021/10/19 02:54:16;;;;;;;31.63;15.02;;;5.90;97.40;;;;;;5013416;28;20111;-87
2021/10/19 02:56:42;;;;;;;25.23;14.43;;;5.90;97.30;;;;;;5001634;28;20032;-85
2021/10/19 02:59:07;;;;;;;30.67;14.32;;;5.90;97.30;;;;;;5017732;28;20048;-87
2021/10/19 03:01:33;;;;;;;29.25;15.00;;;5.90;97.30;;;;;;5017300;28;20033;-86
2021/10/19 03:03:59;;;;;;;27.15;14.82;;;5.90;97.40;;;;;;5016124;28;20032;-88
2021/10/19 03:06:25;;;;;;;28.00;14.18;;;5.90;97.40;;;;;;5018454;28;20025;-86
2021/10/19 03:08:50;;;;;;;30.10;15.30;;;5.90;97.60;;;;;;5014452;28;20405;-86
2021/10/19 03:11:16;;;;;;;28.02;15.00;;;5.90;97.40;;;;;;5006897;28;20556;-87
2021/10/19 03:13:42;;;;;;;29.15;14.82;;;5.90;97.30;;;;;;5005736;28;20030;-88
2021/10/19 03:16:07;;;;;;;24.50;14.45;;;5.80;97.20;;;;;;5017524;28;20577;-85
2021/10/19 03:18:33;;;;;;;25.17;14.20;;;5.80;97.30;;;;;;5017054;28;20029;-86
2021/10/19 03:20:59;;;;;;;24.63;13.50;;;5.80;97.40;;;;;;5016777;28;20079;-86
2021/10/19 03:23:24;;;;;;;29.00;14.70;;;5.80;97.40;;;;;;5034881;28;20029;-87
2021/10/19 03:25:50;;;;;;;23.73;13.98;;;5.80;97.50;;;;;;5014298;28;20051;-87
2021/10/19 03:28:16;;;;;;;24.95;13.07;;;5.80;97.50;;;;;;5011651;28;20359;-87
2021/10/19 03:30:42;;;;;;;23.42;13.70;;;5.80;97.70;;;;;;5011761;28;20029;-87
2021/10/19 03:33:08;;;;;;;21.27;13.18;;;5.90;97.40;;;;;;5017688;28;20029;-87
2021/10/19 03:35:34;;;;;;;25.00;13.25;;;5.80;97.30;;;;;;5017458;28;20034;-86
2021/10/19 03:38:00;;;;;;;23.52;12.95;;;5.80;97.30;;;;;;5018486;28;20028;-86
2021/10/19 03:40:26;;;;;;;23.13;12.65;;;5.70;97.30;;;;;;5036075;28;20045;-87
2021/10/19 03:45:19;;;;;;;23.52;12.77;;;5.70;97.50;;;;;;5029659;28;20054;-69
2021/10/19 03:47:45;;;;;;;22.13;12.77;;;5.70;97.60;;;;;;5031560;28;20725;-68
2021/10/19 03:50:12;;;;;;;25.65;12.63;;;5.80;97.60;;;;;;5031988;28;20428;-69
2021/10/19 03:52:38;;;;;;;23.55;12.55;;;5.80;97.70;;;;;;5029701;28;20033;-68
2021/10/19 03:55:06;;;;;;;23.60;13.40;;;5.90;97.70;;;;;;5031249;28;20583;-68
2021/10/19 03:57:32;;;;;;;26.75;14.15;;;5.90;97.70;;;;;;5029988;28;20037;-68
2021/10/19 03:59:57;;;;;;;25.65;13.73;;;6.00;97.60;;;;;;5027029;28;20417;-68
2021/10/19 04:02:23;;;;;;;25.92;13.23;;;6.00;97.60;;;;;;5030957;28;20076;-68
2021/10/19 04:04:48;;;;;;;26.08;13.77;;;6.00;97.60;;;;;;5030511;28;20442;-68
2021/10/19 04:07:14;;;;;;;21.10;12.30;;;6.00;97.70;;;;;;5031556;28;20036;-68
2021/10/19 04:09:40;;;;;;;23.90;13.43;;;6.00;97.70;;;;;;5031186;28;20548;-74
2021/10/19 04:12:07;;;;;;;23.30;13.25;;;6.10;97.70;;;;;;5024541;28;20018;-68
2021/10/19 04:14:34;;;;;;;25.10;12.95;;;6.10;97.70;;;;;;5016596;28;20026;-69
2021/10/19 04:17:00;;;;;;;24.27;12.95;;;6.20;97.70;;;;;;5024569;28;20021;-69
2021/10/19 04:19:25;;;;;;;25.08;13.23;;;6.20;97.70;;;;;;5031064;28;20036;-69
2021/10/19 04:21:51;;;;;;;22.88;12.65;;;6.20;97.70;;;;;;5031197;28;20029;-69
2021/10/19 04:24:17;;;;;;;24.55;13.70;;;6.30;97.80;;;;;;5029512;28;20040;-68
2021/10/19 04:26:43;;;;;;;24.00;13.48;;;6.30;97.70;;;;;;5030506;28;20429;-68
2021/10/19 04:29:09;;;;;;;20.75;12.43;;;6.30;97.70;;;;;;5030995;28;20118;-69
2021/10/19 04:31:37;;;;;;;20.67;12.48;;;6.30;97.70;;;;;;5030757;28;20037;-68
2021/10/19 04:34:03;;;;;;;26.67;13.30;;;6.30;97.70;;;;;;5024848;28;20022;-69
2021/10/19 04:36:28;;;;;;;28.50;14.98;;;6.40;97.60;;;;;;5030518;28;20037;-68
2021/10/19 04:38:54;;;;;;;23.63;13.48;;;6.40;97.60;;;;;;5031018;28;20481;-69
2021/10/19 04:41:20;;;;;;;26.27;13.10;;;6.30;97.50;;;;;;5030049;28;20390;-68
2021/10/19 04:43:45;;;;;;;23.33;11.98;;;6.30;97.50;;;;;;5008440;28;20030;-68
2021/10/19 04:46:11;;;;;;;24.77;13.27;;;6.30;97.70;;;;;;5022811;28;20462;-68
2021/10/19 04:48:37;;;;;;;25.45;13.90;;;6.40;97.70;;;;;;5030952;28;20108;-69
2021/10/19 04:51:03;;;;;;;27.65;14.88;;;6.40;97.60;;;;;;5027391;28;20454;-69
2021/10/19 04:53:29;;;;;;;21.25;13.25;;;6.40;97.60;;;;;;5027550;28;20486;-69
2021/10/19 04:55:54;;;;;;;29.98;15.20;;;6.40;97.60;;;;;;5030770;28;20060;-69
2021/10/19 04:58:20;;;;;;;22.17;13.88;;;6.40;97.70;;;;;;5030294;28;20060;-68
2021/10/19 05:00:47;;;;;;;24.10;14.55;;;6.40;97.70;;;;;;5029862;28;20022;-69
2021/10/19 05:03:15;;;;;;;26.10;13.70;;;6.50;97.70;;;;;;5011206;28;20037;-69
2021/10/19 05:05:41;;;;;;;29.25;15.20;;;6.50;97.70;;;;;;5015142;28;20018;-69
2021/10/19 05:08:06;;;;;;;26.10;14.18;;;6.50;97.80;;;;;;5029720;28;20041;-68
2021/10/19 05:10:32;;;;;;;27.05;15.10;;;6.50;97.80;;;;;;5024531;28;20025;-68
2021/10/19 05:12:57;;;;;;;27.10;14.02;;;6.50;97.80;;;;;;5026960;28;20380;-68
2021/10/19 05:15:24;;;;;;;27.17;14.90;;;6.60;97.80;;;;;;5015770;28;20815;-69
2021/10/19 05:17:50;;;;;;;28.60;14.90;;;6.60;97.90;;;;;;5023229;28;20084;-68
2021/10/19 05:20:16;;;;;;;27.88;14.02;;;6.60;97.80;;;;;;5029690;28;20025;-67
2021/10/19 05:22:42;;;;;;;26.17;14.10;;;6.70;97.90;;;;;;5029265;28;20025;-69
2021/10/19 05:25:08;;;;;;;28.20;13.82;;;6.70;97.90;;;;;;5028130;28;20053;-69
2021/10/19 05:27:33;;;;;;;24.58;14.38;;;6.70;97.90;;;;;;5024524;28;20064;-69
2021/10/19 05:29:59;;;;;;;27.38;14.48;;;6.70;97.90;;;;;;5022678;28;20053;-69
2021/10/19 05:32:24;;;;;;;26.48;14.02;;;6.80;97.90;;;;;;5028445;28;20477;-68
2021/10/19 05:34:50;;;;;;;27.00;14.75;;;6.80;97.90;;;;;;5029298;28;20095;-70
2021/10/19 05:37:15;;;;;;;28.23;15.43;;;6.80;97.80;;;;;;5028927;28;20117;-69
2021/10/19 05:39:41;;;;;;;24.90;13.93;;;6.80;97.80;;;;;;5029321;28;20099;-69
2021/10/19 05:42:07;;;;;;;28.05;15.45;;;6.80;97.80;;;;;;5023765;28;20029;-69
2021/10/19 05:44:33;;;;;;;28.73;15.65;;;6.80;97.90;;;;;;5014195;28;20034;-69
2021/10/19 05:46:58;;;;;;;28.85;15.45;;;6.90;97.90;;;;;;5024253;28;20036;-68
2021/10/19 05:49:24;;;;;;;29.67;15.45;;;6.90;97.90;;;;;;5029013;28;20102;-69
2021/10/19 05:51:52;;;;;;;39.65;23.92;;;6.90;97.90;;;;;;5030644;28;20026;-68
2021/10/19 05:54:17;;;;;;;27.50;16.42;;;6.90;97.90;;;;;;5029143;28;20481;-69
2021/10/19 05:56:43;;;;;;;31.27;15.50;;;6.90;97.90;;;;;;5030213;28;20033;-68
2021/10/19 05:59:09;;;;;;;26.30;15.57;;;6.90;97.90;;;;;;5030562;28;20100;-68
2021/10/19 06:01:34;;;;;;;26.50;14.82;;;6.90;97.90;;;;;;5029712;28;20083;-72
2021/10/19 06:04:00;;;;;;;25.60;15.05;;;6.80;97.90;;;;;;5023492;28;20084;-68
2021/10/19 06:06:26;;;;;;;26.67;14.07;;;6.90;98.00;;;;;;5021192;28;20508;-68
2021/10/19 06:08:51;;;;;;;26.45;14.50;;;6.90;98.00;;;;;;5028352;28;20029;-68
2021/10/19 06:11:20;;;;;;;26.42;14.30;;;6.90;98.10;;;;;;5023505;28;20496;-69
2021/10/19 06:13:46;;;;;;;26.88;14.30;;;6.90;98.10;;;;;;5007502;28;20176;-68
2021/10/19 06:16:11;;;;;;;27.40;15.55;;;7.00;98.20;;;;;;5028818;28;20029;-68
2021/10/19 06:18:37;;;;;;;22.92;14.20;;;7.00;98.20;;;;;;5029894;28;20037;-68
2021/10/19 06:21:03;;;;;;;25.45;14.50;;;7.00;98.20;;;;;;5028984;28;20437;-69
2021/10/19 06:23:29;;;;;;;26.33;13.70;;;7.10;98.20;;;;;;5030036;28;20032;-69
2021/10/19 06:25:54;;;;;;;25.10;14.20;;;7.10;98.20;;;;;;5030374;28;20068;-69
2021/10/19 06:28:20;;;;;;;27.75;14.43;;;7.10;98.20;;;;;;5032679;28;20033;-69
2021/10/19 06:30:46;;;;;;;28.90;15.07;;;7.20;98.20;;;;;;5033757;28;20072;-68
2021/10/19 06:33:12;;;;;;;23.63;13.90;;;7.20;98.20;;;;;;5032381;28;20053;-69
2021/10/19 06:35:40;;;;;;;27.17;14.55;;;7.30;98.20;;;;;;5032998;28;20104;-69
2021/10/19 06:38:06;;;;;;;25.98;13.77;;;7.30;98.20;;;;;;5033513;28;20025;-69
2021/10/19 06:40:31;;;;;;;22.75;13.63;;;7.30;98.10;;;;;;5032390;28;21673;-68
2021/10/19 06:42:57;;;;;;;25.55;13.40;;;7.30;98.10;;;;;;5028205;28;20021;-69
2021/10/19 06:45:23;;;;;;;24.27;14.18;;;7.40;98.20;;;;;;5035389;28;20470;-69
2021/10/19 06:47:49;;;;;;;24.98;14.57;;;7.40;98.20;;;;;;5031409;28;20473;-69
2021/10/19 06:50:14;;;;;;;26.92;14.05;;;7.40;98.20;;;;;;5033074;28;20100;-69
2021/10/19 06:52:40;;;;;;;27.77;15.30;;;7.40;98.20;;;;;;5026492;28;20489;-69
2021/10/19 06:55:07;;;;;;;26.15;13.52;;;7.50;98.20;;;;;;5028653;28;20752;-69
2021/10/19 06:57:44;;;;;;;27.05;14.57;;;7.50;98.30;;;;;;5028891;28;20041;-69
2021/10/19 07:00:11;;;;;;;24.73;13.70;;;7.50;98.20;;;;;;5029660;28;20018;-68
2021/10/19 07:02:37;;;;;;;25.05;13.95;;;7.50;98.20;;;;;;5030334;28;20029;-69
2021/10/19 07:05:03;;;;;;;25.08;13.55;;;7.60;98.30;;;;;;5032733;28;20032;-69
2021/10/19 07:07:29;;;;;;;26.38;15.23;;;7.60;98.30;;;;;;5031957;28;20473;-69
2021/10/19 07:09:55;;;;;;;24.10;13.50;;;7.60;98.30;;;;;;5032585;28;20041;-69
2021/10/19 07:12:20;;;;;;;26.80;14.48;;;7.70;98.30;;;;;;5030869;28;20032;-67
2021/10/19 07:14:48;;;;;;;24.58;14.68;;;7.70;98.30;;;;;;5031800;28;20032;-69
2021/10/19 07:17:14;;;;;;;25.85;13.50;;;7.80;98.30;;;;;;5030425;28;20116;-69
2021/10/19 07:19:40;;;;;;;27.70;15.15;;;7.80;98.30;;;;;;5020427;28;20030;-68
2021/10/19 07:22:06;;;;;;;29.02;16.88;;;7.80;98.30;;;;;;5012925;28;20049;-68
2021/10/19 07:24:31;;;;;;;22.73;14.15;;;7.80;98.30;;;;;;5011785;28;20026;-68
2021/10/19 07:26:57;;;;;;;33.53;16.92;;;7.80;98.30;;;;;;5012793;28;20030;-69
2021/10/19 07:29:23;;;;;;;27.25;15.82;;;7.90;98.30;;;;;;5013249;28;20033;-69
2021/10/19 07:31:48;;;;;;;29.30;15.13;;;7.90;98.30;;;;;;5012967;28;20030;-69
2021/10/19 07:34:14;;;;;;;28.60;15.95;;;7.90;98.30;;;;;;5025818;28;20033;-68
2021/10/19 07:36:40;;;;;;;28.90;16.20;;;7.90;98.40;;;;;;5032762;28;20089;-68
2021/10/19 07:39:06;;;;;;;28.23;16.30;;;7.90;98.40;;;;;;5032518;28;20021;-69
2021/10/19 07:41:32;;;;;;;30.38;16.05;;;7.90;98.40;;;;;;5030791;28;20155;-69
2021/10/19 07:43:58;;;;;;;31.95;16.05;;;8.00;98.40;;;;;;5009890;28;20022;-69
2021/10/19 07:46:23;;;;;;;26.95;16.00;;;8.00;98.40;;;;;;5012721;28;20030;-69
2021/10/19 07:48:49;;;;;;;30.50;16.77;;;8.00;98.60;;;;;;5016505;28;20033;-69
2021/10/19 07:51:14;;;;;;;30.65;15.77;;;8.00;98.40;;;;;;5032090;28;20036;-69
2021/10/19 07:53:40;;;;;;;27.23;14.80;;;8.10;98.40;;;;;;5031077;28;20039;-69
2021/10/19 07:56:06;;;;;;;28.38;14.93;;;8.10;98.40;;;;;;5031837;28;20132;-70
2021/10/19 07:58:31;;;;;;;26.17;13.95;;;8.10;98.40;;;;;;5032218;28;20079;-69
2021/10/19 08:00:57;;;;;;;29.70;16.30;;;8.20;98.50;;;;;;5032296;28;20036;-69
2021/10/19 08:03:22;;;;;;;30.65;16.42;;;8.20;98.50;;;;;;5031215;28;20031;-69
2021/10/19 08:05:48;;;;;;;29.13;15.98;;;8.30;98.60;;;;;;5032104;28;20409;-69
2021/10/19 08:08:16;;;;;;;27.10;15.85;;;8.30;98.50;;;;;;5027470;28;20073;-69
2021/10/19 08:10:44;;;;;;;24.10;12.75;;;8.40;98.50;;;;;;5030513;28;20599;-69
2021/10/19 08:13:10;;;;;;;27.85;16.25;;;8.40;98.50;;;;;;5015485;28;20018;-69
2021/10/19 08:15:37;;;;;;;29.40;15.63;;;8.40;98.60;;;;;;5028745;28;20436;-69
2021/10/19 08:18:03;;;;;;;27.10;15.60;;;8.50;98.60;;;;;;5031674;28;20136;-69
2021/10/19 08:20:30;;;;;;;24.85;15.70;;;8.50;98.60;;;;;;5032017;28;20028;-69
2021/10/19 08:22:56;;;;;;;26.10;15.13;;;8.50;98.60;;;;;;5030315;28;20100;-69
2021/10/19 08:25:22;;;;;;;28.52;14.95;;;8.60;98.60;;;;;;5023094;28;20443;-68
2021/10/19 08:27:48;;;;;;;25.50;15.10;;;8.60;98.60;;;;;;5031248;28;20335;-68
2021/10/19 08:30:17;;;;;;;28.88;15.68;;;8.70;98.60;;;;;;5031880;28;20025;-69
2021/10/19 08:32:43;;;;;;;28.80;15.75;;;8.70;98.60;;;;;;5030735;28;20112;-69
2021/10/19 08:35:09;;;;;;;26.48;16.05;;;8.70;98.50;;;;;;5030250;28;20041;-68
2021/10/19 08:37:35;;;;;;;25.65;14.35;;;8.70;98.50;;;;;;5031438;28;20049;-69
2021/10/19 08:40:02;;;;;;;24.80;14.73;;;8.70;98.50;;;;;;5031243;28;20116;-69
2021/10/19 08:42:28;;;;;;;27.02;15.38;;;8.80;98.60;;;;;;5033479;28;20068;-69
2021/10/19 08:44:53;;;;;;;23.95;14.50;;;8.80;98.70;;;;;;5049913;28;20512;-69
2021/10/19 08:47:20;;;;;;;27.17;14.95;;;8.80;98.60;;;;;;5051461;28;20025;-68
2021/10/19 08:49:46;;;;;;;27.17;14.25;;;8.80;98.70;;;;;;5051264;28;20025;-69
2021/10/19 08:52:12;;;;;;;24.85;14.90;;;8.90;98.70;;;;;;5051143;28;20040;-70
2021/10/19 08:54:37;;;;;;;22.75;13.50;;;8.90;98.70;;;;;;5036650;28;20402;-68
2021/10/19 08:57:16;;;;;;;26.23;14.27;;;8.90;98.70;;;;;;5026239;28;20060;-69
2021/10/19 08:59:44;;;;;;;23.65;13.43;;;9.00;98.70;;;;;;5030672;28;20478;-69
2021/10/19 09:02:10;;;;;;;24.27;13.70;;;9.00;98.60;;;;;;5029027;28;20017;-68
2021/10/19 09:04:36;;;;;;;22.13;13.20;;;9.00;98.70;;;;;;5028352;28;20025;-69
2021/10/19 09:07:02;;;;;;;22.70;12.60;;;9.00;98.70;;;;;;5026075;28;20033;-69
2021/10/19 09:09:29;;;;;;;24.42;12.98;;;9.10;98.80;;;;;;5030856;28;20029;-72
2021/10/19 09:11:57;;;;;;;17.77;11.30;;;9.10;98.80;;;;;;5029644;28;20029;-72
2021/10/19 09:14:30;;;;;;;16.38;10.85;;;9.20;98.80;;;;;;5027788;28;20025;-72
2021/10/19 09:16:56;;;;;;;16.90;11.00;;;9.20;98.90;;;;;;5030498;28;20490;-70
2021/10/19 09:19:23;;;;;;;15.38;10.02;;;9.30;98.90;;;;;;5029308;28;20032;-69
2021/10/19 09:21:55;;;;;;;15.98;9.55;;;9.40;98.80;;;;;;5029784;28;20045;-69
2021/10/19 09:24:26;;;;;;;14.48;9.55;;;9.40;98.80;;;;;;5029398;28;20021;-69
2021/10/19 09:26:58;;;;;;;10.55;7.15;;;9.50;98.90;;;;;;5028190;28;20018;-69
2021/10/19 09:29:26;;;;;;;10.90;6.90;;;9.60;98.90;;;;;;5030473;28;20021;-69
2021/10/19 09:32:00;;;;;;;8.75;6.38;;;9.70;99.00;;;;;;5030331;28;20116;-69
2021/10/19 09:34:32;;;;;;;9.35;6.47;;;9.80;99.00;;;;;;5028313;28;20029;-69
2021/10/19 09:36:59;;;;;;;9.70;5.72;;;9.90;99.00;;;;;;5025175;28;20092;-69
2021/10/19 09:39:49;;;;;;;7.85;5.50;;;10.00;99.00;;;;;;5028828;28;20037;-69
2021/10/19 09:42:26;;;;;;;9.13;6.10;;;10.10;99.00;;;;;;5022352;28;20521;-69
2021/10/19 09:45:00;;;;;;;7.43;5.60;;;10.20;99.00;;;;;;5021967;28;20021;-69
2021/10/19 09:47:26;;;;;;;8.55;5.82;;;10.20;99.00;;;;;;5029742;28;20021;-69
2021/10/19 09:49:56;;;;;;;6.40;5.28;;;10.30;99.00;;;;;;5030432;28;20054;-69
2021/10/19 09:52:23;;;;;;;18.60;11.88;;;10.40;99.00;;;;;;5028354;28;20034;-70
2021/10/19 09:54:53;;;;;;;9.25;6.35;;;10.50;99.00;;;;;;5028465;28;20392;-70
2021/10/19 09:57:19;;;;;;;9.75;6.35;;;10.50;99.00;;;;;;5030801;28;20029;-69
2021/10/19 09:59:46;;;;;;;11.07;6.85;;;10.60;99.00;;;;;;5029967;28;20044;-69
2021/10/19 10:02:14;;;;;;;12.70;6.60;;;10.60;99.00;;;;;;5032610;28;20028;-69
2021/10/19 10:04:41;;;;;;;10.10;7.00;;;10.70;99.00;;;;;;5033269;28;20026;-70
2021/10/19 10:07:14;;;;;;;9.80;6.47;;;10.80;99.10;;;;;;5014554;28;20145;-69
2021/10/19 10:09:42;;;;;;;9.95;6.47;;;10.80;99.10;;;;;;5030453;28;20044;-69
2021/10/19 10:12:08;;;;;;;8.90;6.25;;;10.80;99.00;;;;;;5024332;28;20021;-70
2021/10/19 10:14:48;;;;;;;7.60;6.32;;;10.90;99.00;;;;;;5032075;28;20439;-69
2021/10/19 10:17:14;;;;;;;6.72;5.53;;;10.90;99.30;;;;;;5033863;28;20025;-69
2021/10/19 10:19:42;;;;;;;6.95;5.35;;;11.00;99.10;;;;;;5029045;28;20121;-69
2021/10/19 10:22:30;;;;;;;7.40;5.22;;;11.00;99.10;;;;;;5024725;28;20017;-69
2021/10/19 10:25:10;;;;;;;5.97;4.45;;;11.10;99.10;;;;;;5031616;28;20029;-67
2021/10/19 10:27:36;;;;;;;8.15;4.88;;;11.20;99.10;;;;;;5030639;28;20118;-70
2021/10/19 10:30:03;;;;;;;8.38;5.00;;;11.30;99.10;;;;;;5032852;28;20043;-67
2021/10/19 10:32:30;;;;;;;6.07;4.57;;;11.30;99.10;;;;;;5031596;28;20033;-70
2021/10/19 10:35:02;;;;;;;6.63;4.20;;;11.30;99.00;;;;;;5019897;28;20101;-70
2021/10/19 10:37:54;;;;;;;6.25;4.28;;;11.40;99.10;;;;;;5030348;28;20056;-67
2021/10/19 10:40:31;;;;;;;7.07;4.40;;;11.40;99.10;;;;;;5023452;28;20049;-67
2021/10/19 10:42:59;;;;;;;4.75;4.07;;;11.50;99.10;;;;;;5017885;28;20026;-69
2021/10/19 10:45:34;;;;;;;5.60;4.15;;;11.50;99.00;;;;;;5030823;28;20494;-69
2021/10/19 10:48:08;;;;;;;5.07;3.70;;;11.50;99.10;;;;;;5031343;28;20026;-70
2021/10/19 10:50:36;;;;;;;6.38;3.95;;;11.60;99.10;;;;;;5031841;28;20179;-70
2021/10/19 10:53:10;;;;;;;4.55;4.10;;;11.60;99.00;;;;;;5030774;28;20029;-69
2021/10/19 10:55:41;;;;;;;8.70;3.70;;;11.60;99.10;;;;;;5024087;28;20485;-69
2021/10/19 10:58:07;;;;;;;4.85;3.70;;;11.70;99.00;;;;;;5032610;28;20120;-70
2021/10/19 11:00:33;;;;;;;4.30;3.60;;;11.70;99.20;;;;;;5031972;28;20462;-69
2021/10/19 11:03:16;;;;;;;4.63;3.60;;;11.80;99.00;;;;;;5030143;28;20060;-70
2021/10/19 11:05:54;;;;;;;3.80;3.15;;;11.90;99.10;;;;;;5033248;28;20025;-69
2021/10/19 11:08:31;;;;;;;3.97;3.35;;;11.90;99.10;;;;;;5024167;28;20037;-69
2021/10/19 11:11:12;;;;;;;7.75;3.33;;;12.00;99.00;;;;;;5027223;28;20051;-69
2021/10/19 11:14:00;;;;;;;5.30;3.33;;;12.00;99.00;;;;;;5020223;28;20029;-69
2021/10/19 11:16:53;;;;;;;4.68;3.30;;;12.10;99.00;;;;;;5013095;28;20039;-69
2021/10/19 11:19:22;;;;;;;5.50;3.65;;;12.10;99.00;;;;;;5013719;28;20034;-69
2021/10/19 11:22:04;;;;;;;7.05;4.20;;;12.20;98.90;;;;;;5011425;28;20048;-69
2021/10/19 11:24:31;;;;;;;6.00;3.28;;;12.20;98.90;;;;;;5025562;28;20025;-66
2021/10/19 11:27:02;;;;;;;3.88;3.33;;;12.30;98.90;;;;;;5024969;28;20028;-67
2021/10/19 11:29:29;;;;;;;3.53;3.17;;;12.30;98.90;;;;;;5030155;28;20110;-67
2021/10/19 11:31:54;;;;;;;3.35;2.95;;;12.40;98.90;;;;;;5032232;28;20033;-69
2021/10/19 11:34:20;;;;;;;5.47;3.10;;;12.50;98.90;;;;;;5029850;28;20079;-69
2021/10/19 11:36:45;;;;;;;3.97;3.22;;;12.60;98.80;;;;;;5031841;28;20033;-67
2021/10/19 11:39:14;;;;;;;3.38;2.92;;;12.70;98.80;;;;;;5032285;28;20028;-66
2021/10/19 11:41:46;;;;;;;3.72;2.72;;;12.80;98.80;;;;;;5027458;28;20429;-67
2021/10/19 11:44:12;;;;;;;3.60;3.10;;;12.90;98.80;;;;;;5025034;28;20109;-67
2021/10/19 11:46:40;;;;;;;6.30;4.00;;;12.90;98.90;;;;;;5031647;28;20615;-67
2021/10/19 11:49:13;;;;;;;3.33;2.70;;;13.00;98.70;;;;;;5032723;28;20029;-68
2021/10/19 11:51:43;;;;;;;3.92;2.60;;;13.10;98.70;;;;;;5032202;28;20026;-67
2021/10/19 11:54:09;;;;;;;3.40;2.95;;;13.20;98.70;;;;;;5022622;28;20029;-68
2021/10/19 11:56:35;;;;;;;4.30;2.50;;;13.20;98.60;;;;;;5029330;28;20043;-67
2021/10/19 11:59:06;;;;;;;3.70;2.85;;;13.30;98.60;;;;;;5031765;28;20375;-67
2021/10/19 12:01:43;;;;;;;3.10;2.80;;;13.40;98.60;;;;;;5031394;28;20032;-67
2021/10/19 12:04:12;;;;;;;4.03;2.67;;;13.40;98.60;;;;;;5027315;28;20776;-67
2021/10/19 12:06:45;;;;;;;2.90;2.63;;;13.50;98.50;;;;;;5031691;28;20087;-67
2021/10/19 12:09:20;;;;;;;9.95;6.78;;;13.60;98.50;;;;;;5031202;28;20026;-67
2021/10/19 12:11:52;;;;;;;3.47;2.92;;;13.70;98.50;;;;;;5013208;28;20026;-68
2021/10/19 12:14:26;;;;;;;3.00;2.60;;;13.70;98.40;;;;;;5013954;28;20149;-68
2021/10/19 12:16:55;;;;;;;7.47;2.72;;;13.80;98.40;;;;;;5036118;28;20074;-72
2021/10/19 12:19:21;;;;;;;2.88;2.40;;;13.90;98.40;;;;;;5040610;28;20041;-67
2021/10/19 12:21:55;;;;;;;3.47;2.58;;;14.00;98.30;;;;;;5031453;28;20022;-69
2021/10/19 12:24:21;;;;;;;2.38;2.10;;;14.10;98.30;;;;;;5028144;28;20455;-69
2021/10/19 12:26:56;;;;;;;2.58;2.38;;;14.30;98.50;;;;;;5025217;28;20033;-69
2021/10/19 12:29:22;;;;;;;2.50;2.30;;;14.40;98.30;;;;;;5024907;28;20032;-69
2021/10/19 12:31:48;;;;;;;4.72;2.30;;;14.50;98.10;;;;;;5026867;28;20018;-69
2021/10/19 12:34:13;;;;;;;4.15;2.47;;;14.60;98.00;;;;;;5021415;28;20052;-69
2021/10/19 12:36:40;;;;;;;3.63;2.30;;;14.60;97.90;;;;;;5030921;28;20032;-69
2021/10/19 12:39:13;;;;;;;2.20;2.00;;;14.60;97.80;;;;;;5030800;28;20033;-70
2021/10/19 12:41:39;;;;;;;2.58;2.15;;;14.70;97.80;;;;;;5029206;28;20028;-70